Time;durP1;ratioP1;P1;durP2;ratioP2;P2;SDS_P1;SDS_P2;PMS_P1;PMS_P2;Temp;Humidity;BMP_temperature;BMP_pressure;BME280_temperature;BME280_humidity;BME280_pressure;Samples;Min_cycle;Max_cycle;Signal;HPM_P1;HPM_P2
2022/08/05 00:01:35;;;;;;;12.13;5.38;;;;;;;;;;5032869;28;20444;-66
2022/08/05 00:04:00;;;;;;;10.68;4.85;;;;;;;;;;5030873;28;20383;-65
2022/08/05 00:06:26;;;;;;;12.32;5.40;;;;;;;;;;5032636;28;20033;-66
2022/08/05 00:08:51;;;;;;;11.68;4.80;;;;;;;;;;5038601;28;20631;-66
2022/08/05 00:11:16;;;;;;;9.88;4.70;;;;;;;;;;5031383;28;20068;-66
2022/08/05 00:13:43;;;;;;;13.13;5.72;;;;;;;;;;5024381;28;20025;-66
2022/08/05 00:16:10;;;;;;;9.38;5.13;;;;;;;;;;5032029;28;20117;-66
2022/08/05 00:18:38;;;;;;;10.85;5.18;;;;;;;;;;5031238;28;20561;-66
2022/08/05 00:21:04;;;;;;;13.35;6.18;;;;;;;;;;5032958;28;20120;-66
2022/08/05 00:23:30;;;;;;;14.55;5.55;;;;;;;;;;5031257;28;20017;-66
2022/08/05 00:25:55;;;;;;;13.95;5.70;;;;;;;;;;5032676;28;20044;-65
2022/08/05 00:28:20;;;;;;;11.38;5.57;;;;;;;;;;5037121;28;20442;-66
2022/08/05 00:30:45;;;;;;;13.93;5.60;;;;;;;;;;5031946;28;20508;-66
2022/08/05 00:33:11;;;;;;;14.65;5.40;;;;;;;;;;5032043;28;20029;-66
2022/08/05 00:35:36;;;;;;;10.68;5.13;;;;;;;;;;5031823;28;20017;-66
2022/08/05 00:38:01;;;;;;;12.13;5.18;;;;;;;;;;5030934;28;20040;-66
2022/08/05 00:40:27;;;;;;;14.60;5.05;;;;;;;;;;5033391;28;20037;-66
2022/08/05 00:42:52;;;;;;;17.05;5.15;;;;;;;;;;5031200;28;20021;-66
2022/08/05 00:45:18;;;;;;;12.80;5.40;;;;;;;;;;5031533;28;20052;-66
2022/08/05 00:47:43;;;;;;;16.85;6.05;;;;;;;;;;5031458;28;20489;-66
2022/08/05 00:50:09;;;;;;;13.02;6.30;;;;;;;;;;5030616;28;20080;-65
2022/08/05 00:52:34;;;;;;;16.17;6.82;;;;;;;;;;5031855;28;20041;-66
2022/08/05 00:54:59;;;;;;;19.58;8.20;;;;;;;;;;5031667;28;20044;-65
2022/08/05 00:57:25;;;;;;;16.15;8.10;;;;;;;;;;5031282;28;20061;-65
2022/08/05 00:59:50;;;;;;;17.42;8.07;;;;;;;;;;5032297;28;20478;-65
2022/08/05 01:02:15;;;;;;;21.27;9.25;;;;;;;;;;5030785;28;20113;-65
2022/08/05 01:04:40;;;;;;;22.17;8.88;;;;;;;;;;5030949;28;20379;-66
2022/08/05 01:07:06;;;;;;;21.70;9.52;;;;;;;;;;5031237;28;20029;-65
2022/08/05 01:09:31;;;;;;;17.50;8.57;;;;;;;;;;5030809;28;20029;-66
2022/08/05 01:11:58;;;;;;;17.10;9.35;;;;;;;;;;5031347;28;20025;-65
2022/08/05 01:14:25;;;;;;;18.85;8.25;;;;;;;;;;5032083;28;20017;-65
2022/08/05 01:16:53;;;;;;;18.15;8.68;;;;;;;;;;5031517;28;20026;-65
2022/08/05 01:19:21;;;;;;;22.55;8.85;;;;;;;;;;5029641;28;20031;-66
2022/08/05 01:21:54;;;;;;;19.85;9.85;;;;;;;;;;5030010;28;20033;-66
2022/08/05 01:24:34;;;;;;;23.77;9.68;;;;;;;;;;5032621;28;20024;-66
2022/08/05 01:27:12;;;;;;;22.75;10.15;;;;;;;;;;5029856;28;20044;-65
2022/08/05 01:29:44;;;;;;;25.25;11.15;;;;;;;;;;5031308;28;20144;-65
2022/08/05 01:32:10;;;;;;;21.13;10.02;;;;;;;;;;5033527;28;20025;-65
2022/08/05 01:34:36;;;;;;;23.98;10.63;;;;;;;;;;5031645;28;20028;-66
2022/08/05 01:37:04;;;;;;;27.10;12.93;;;;;;;;;;5030743;28;20021;-66
2022/08/05 01:39:30;;;;;;;26.20;12.18;;;;;;;;;;5030938;28;20053;-65
2022/08/05 01:41:57;;;;;;;24.00;10.98;;;;;;;;;;5030954;28;20025;-65
2022/08/05 01:44:23;;;;;;;22.63;11.07;;;;;;;;;;5031677;28;20021;-66
2022/08/05 01:46:49;;;;;;;22.42;11.30;;;;;;;;;;5030149;28;20096;-66
2022/08/05 01:49:18;;;;;;;23.50;11.43;;;;;;;;;;5031250;28;20037;-66
2022/08/05 01:51:44;;;;;;;25.40;11.43;;;;;;;;;;5031213;28;20386;-65
2022/08/05 01:54:11;;;;;;;26.88;11.27;;;;;;;;;;5031180;28;20030;-66
2022/08/05 01:56:38;;;;;;;22.05;11.68;;;;;;;;;;5031176;28;20029;-66
2022/08/05 01:59:05;;;;;;;24.58;12.20;;;;;;;;;;5031160;28;20053;-66
2022/08/05 02:01:33;;;;;;;25.48;11.70;;;;;;;;;;5030514;28;20040;-65
2022/08/05 02:03:58;;;;;;;21.33;11.27;;;;;;;;;;5029204;28;20022;-65
2022/08/05 02:06:24;;;;;;;23.98;12.18;;;;;;;;;;5030401;28;20013;-65
2022/08/05 02:08:49;;;;;;;26.35;12.15;;;;;;;;;;5030604;28;20466;-66
2022/08/05 02:11:16;;;;;;;25.15;12.32;;;;;;;;;;5031336;28;20025;-66
2022/08/05 02:13:41;;;;;;;26.98;13.25;;;;;;;;;;5028720;28;20397;-66
2022/08/05 02:16:13;;;;;;;24.83;13.32;;;;;;;;;;5030801;28;20025;-65
2022/08/05 02:18:49;;;;;;;30.65;14.77;;;;;;;;;;5028933;28;20032;-66
2022/08/05 02:21:20;;;;;;;28.60;14.25;;;;;;;;;;5030862;28;20493;-66
2022/08/05 02:23:48;;;;;;;36.55;14.98;;;;;;;;;;5031253;28;20052;-66
2022/08/05 02:26:18;;;;;;;28.80;14.73;;;;;;;;;;5030177;28;20018;-66
2022/08/05 02:28:44;;;;;;;28.02;14.45;;;;;;;;;;5030850;28;20051;-66
2022/08/05 02:31:21;;;;;;;28.48;14.10;;;;;;;;;;5031457;28;20441;-66
2022/08/05 02:33:55;;;;;;;29.65;14.60;;;;;;;;;;5034979;28;20026;-66
2022/08/05 02:36:22;;;;;;;29.33;14.25;;;;;;;;;;5034955;28;20378;-65
2022/08/05 02:38:48;;;;;;;25.23;13.07;;;;;;;;;;5034484;28;20029;-66
2022/08/05 02:41:14;;;;;;;34.03;14.15;;;;;;;;;;5035158;28;20032;-65
2022/08/05 02:43:40;;;;;;;29.80;14.38;;;;;;;;;;5033617;28;21189;-66
2022/08/05 02:46:05;;;;;;;29.08;13.68;;;;;;;;;;5034725;28;20053;-66
2022/08/05 02:48:31;;;;;;;31.17;13.60;;;;;;;;;;5034634;28;20474;-65
2022/08/05 02:51:00;;;;;;;29.23;14.25;;;;;;;;;;5034244;28;20067;-65
2022/08/05 02:53:26;;;;;;;28.88;13.95;;;;;;;;;;5034520;28;20088;-65
2022/08/05 02:55:52;;;;;;;23.77;12.02;;;;;;;;;;5035692;28;20549;-66
2022/08/05 02:58:19;;;;;;;26.30;12.73;;;;;;;;;;5034974;28;20096;-66
2022/08/05 03:00:45;;;;;;;21.98;11.80;;;;;;;;;;5034056;28;20029;-65
2022/08/05 03:03:13;;;;;;;20.05;10.60;;;;;;;;;;5034905;28;20470;-65
2022/08/05 03:05:39;;;;;;;22.08;10.98;;;;;;;;;;5033882;28;20021;-66
2022/08/05 03:08:05;;;;;;;21.67;11.23;;;;;;;;;;5034764;28;20022;-66
2022/08/05 03:10:30;;;;;;;22.73;11.23;;;;;;;;;;5034748;28;20071;-66
2022/08/05 03:12:55;;;;;;;22.67;10.65;;;;;;;;;;5035151;28;20022;-66
2022/08/05 03:15:21;;;;;;;20.77;10.75;;;;;;;;;;5033072;28;20021;-66
2022/08/05 03:17:47;;;;;;;20.65;11.18;;;;;;;;;;5033007;28;20028;-65
2022/08/05 03:20:12;;;;;;;17.00;10.55;;;;;;;;;;5033614;28;20025;-66
2022/08/05 03:22:37;;;;;;;25.88;11.35;;;;;;;;;;5034039;28;20025;-65
2022/08/05 03:25:02;;;;;;;29.05;11.88;;;;;;;;;;5033636;28;20441;-66
2022/08/05 03:27:28;;;;;;;20.88;11.40;;;;;;;;;;5034099;28;20033;-65
2022/08/05 03:29:53;;;;;;;21.15;11.00;;;;;;;;;;5035277;28;20076;-65
2022/08/05 03:32:18;;;;;;;25.05;12.05;;;;;;;;;;5033139;28;20355;-65
2022/08/05 03:34:45;;;;;;;22.77;11.68;;;;;;;;;;5033898;28;20033;-66
2022/08/05 03:37:10;;;;;;;20.38;11.75;;;;;;;;;;5033911;28;20462;-65
2022/08/05 03:39:36;;;;;;;22.45;11.85;;;;;;;;;;5033690;28;20033;-65
2022/08/05 03:42:01;;;;;;;25.10;11.77;;;;;;;;;;5033442;28;20029;-65
2022/08/05 03:44:26;;;;;;;25.88;11.77;;;;;;;;;;5032536;28;20037;-65
2022/08/05 03:46:51;;;;;;;22.15;11.80;;;;;;;;;;5033714;28;20396;-65
2022/08/05 03:49:17;;;;;;;21.80;11.30;;;;;;;;;;5033705;28;20034;-65
2022/08/05 03:51:52;;;;;;;25.25;12.85;;;;;;;;;;5030796;28;20056;-65
2022/08/05 03:54:20;;;;;;;21.50;11.88;;;;;;;;;;5033380;28;20053;-65
2022/08/05 03:56:46;;;;;;;22.33;12.02;;;;;;;;;;5033447;28;20044;-66
2022/08/05 03:59:33;;;;;;;24.17;13.00;;;;;;;;;;5032793;28;20030;-65
2022/08/05 04:01:59;;;;;;;24.33;12.52;;;;;;;;;;5023903;28;20033;-65
2022/08/05 04:04:25;;;;;;;26.42;12.95;;;;;;;;;;5033526;28;20385;-65
2022/08/05 04:06:51;;;;;;;25.48;12.68;;;;;;;;;;5032990;28;20462;-65
2022/08/05 04:09:16;;;;;;;26.00;12.90;;;;;;;;;;5033207;28;20033;-66
2022/08/05 04:11:42;;;;;;;25.98;12.85;;;;;;;;;;5031581;28;20036;-66
2022/08/05 04:14:08;;;;;;;24.90;13.02;;;;;;;;;;5033029;28;20033;-66
2022/08/05 04:16:34;;;;;;;25.05;13.52;;;;;;;;;;5031184;28;20071;-66
2022/08/05 04:19:00;;;;;;;27.73;13.77;;;;;;;;;;5033010;28;20025;-66
2022/08/05 04:21:25;;;;;;;25.08;12.55;;;;;;;;;;5034472;28;20032;-65
2022/08/05 04:23:50;;;;;;;21.13;12.10;;;;;;;;;;5033131;28;20064;-65
2022/08/05 04:26:15;;;;;;;25.55;12.85;;;;;;;;;;5031796;28;20032;-65
2022/08/05 04:28:40;;;;;;;28.80;14.75;;;;;;;;;;5033023;28;20029;-65
2022/08/05 04:31:06;;;;;;;23.77;13.52;;;;;;;;;;5031126;28;20549;-65
2022/08/05 04:33:31;;;;;;;33.28;14.88;;;;;;;;;;5032831;28;20061;-66
2022/08/05 04:35:56;;;;;;;35.20;15.15;;;;;;;;;;5031903;28;20677;-66
2022/08/05 04:38:21;;;;;;;29.88;14.57;;;;;;;;;;5032963;28;20028;-66
2022/08/05 04:40:47;;;;;;;26.50;14.55;;;;;;;;;;5033577;28;20021;-65
2022/08/05 04:43:12;;;;;;;35.92;16.00;;;;;;;;;;5033060;28;20347;-66
2022/08/05 04:45:37;;;;;;;35.45;16.20;;;;;;;;;;5031841;28;20091;-65
2022/08/05 04:48:12;;;;;;;36.85;15.50;;;;;;;;;;5032864;28;20029;-66
2022/08/05 04:50:39;;;;;;;30.67;15.23;;;;;;;;;;5031447;28;20056;-66
2022/08/05 04:53:05;;;;;;;35.05;15.80;;;;;;;;;;5031613;28;20039;-65
2022/08/05 04:55:30;;;;;;;32.35;16.48;;;;;;;;;;5032024;28;20021;-66
2022/08/05 04:57:55;;;;;;;27.80;15.50;;;;;;;;;;5032312;28;20025;-65
2022/08/05 05:00:21;;;;;;;31.02;15.43;;;;;;;;;;5031556;28;20033;-66
2022/08/05 05:02:46;;;;;;;28.35;14.10;;;;;;;;;;5033355;28;20087;-66
2022/08/05 05:05:11;;;;;;;24.33;13.40;;;;;;;;;;5029790;28;20081;-65
2022/08/05 05:07:36;;;;;;;28.48;14.25;;;;;;;;;;5031962;28;20136;-66
2022/08/05 05:10:04;;;;;;;23.98;12.10;;;;;;;;;;5033760;28;20041;-65
2022/08/05 05:12:29;;;;;;;24.38;11.80;;;;;;;;;;5040485;28;20045;-65
2022/08/05 05:14:54;;;;;;;19.45;10.63;;;;;;;;;;5031768;28;20045;-66
2022/08/05 05:17:20;;;;;;;25.30;11.50;;;;;;;;;;5032131;28;20025;-65
2022/08/05 05:19:45;;;;;;;20.13;11.85;;;;;;;;;;5031859;28;20033;-66
2022/08/05 05:22:11;;;;;;;23.48;12.02;;;;;;;;;;5032282;28;20041;-65
2022/08/05 05:24:36;;;;;;;22.48;12.77;;;;;;;;;;5032118;28;20481;-65
2022/08/05 05:27:01;;;;;;;22.80;13.30;;;;;;;;;;5032162;28;20036;-65
2022/08/05 05:29:26;;;;;;;26.55;14.23;;;;;;;;;;5024130;28;20025;-66
2022/08/05 05:31:52;;;;;;;25.50;14.63;;;;;;;;;;5032169;28;20025;-65
2022/08/05 05:34:17;;;;;;;27.40;14.57;;;;;;;;;;5031929;28;20108;-66
2022/08/05 05:36:43;;;;;;;33.55;15.50;;;;;;;;;;5031933;28;20363;-65
2022/08/05 05:39:08;;;;;;;24.40;13.07;;;;;;;;;;5031449;28;20444;-66
2022/08/05 05:41:33;;;;;;;23.85;13.68;;;;;;;;;;5031861;28;20014;-66
2022/08/05 05:43:58;;;;;;;27.45;13.93;;;;;;;;;;5031358;28;20071;-65
2022/08/05 05:46:24;;;;;;;28.38;13.65;;;;;;;;;;5031587;28;20018;-66
2022/08/05 05:48:49;;;;;;;22.27;13.95;;;;;;;;;;5031181;28;20077;-65
2022/08/05 05:51:21;;;;;;;28.20;14.50;;;;;;;;;;5031545;28;20033;-65
2022/08/05 05:53:46;;;;;;;27.70;15.95;;;;;;;;;;5031692;28;20078;-66
2022/08/05 05:56:11;;;;;;;27.80;15.45;;;;;;;;;;5031396;28;20416;-65
2022/08/05 05:58:37;;;;;;;28.25;15.32;;;;;;;;;;5030689;28;20029;-65
2022/08/05 06:01:02;;;;;;;28.75;15.48;;;;;;;;;;5031477;28;20060;-65
2022/08/05 06:03:27;;;;;;;30.23;15.73;;;;;;;;;;5031014;28;20033;-66
2022/08/05 06:05:52;;;;;;;29.77;16.02;;;;;;;;;;5030972;28;20024;-65
2022/08/05 06:08:18;;;;;;;26.90;16.08;;;;;;;;;;5030963;28;20108;-66
2022/08/05 06:10:43;;;;;;;30.20;14.35;;;;;;;;;;5030870;28;20065;-66
2022/08/05 06:13:08;;;;;;;27.92;15.85;;;;;;;;;;5030868;28;20403;-65
2022/08/05 06:15:33;;;;;;;29.58;15.07;;;;;;;;;;5031880;28;20523;-66
2022/08/05 06:17:58;;;;;;;27.92;15.52;;;;;;;;;;5034250;28;20478;-65
2022/08/05 06:20:24;;;;;;;26.23;14.88;;;;;;;;;;5030941;28;20017;-65
2022/08/05 06:22:49;;;;;;;26.38;14.10;;;;;;;;;;5028946;28;20029;-66
2022/08/05 06:25:14;;;;;;;25.15;13.80;;;;;;;;;;5034271;28;20024;-66
2022/08/05 06:27:40;;;;;;;27.17;14.25;;;;;;;;;;5035298;28;20037;-66
2022/08/05 06:30:06;;;;;;;23.83;13.18;;;;;;;;;;5027967;28;20039;-66
2022/08/05 06:32:31;;;;;;;22.35;13.18;;;;;;;;;;5028934;28;20025;-66
2022/08/05 06:34:59;;;;;;;26.88;13.95;;;;;;;;;;5033958;28;20466;-66
2022/08/05 06:37:26;;;;;;;22.52;14.13;;;;;;;;;;5029823;28;20057;-65
2022/08/05 06:39:51;;;;;;;25.95;14.68;;;;;;;;;;5031594;28;20030;-66
2022/08/05 06:42:16;;;;;;;22.35;13.30;;;;;;;;;;5030130;28;20020;-65
2022/08/05 06:44:42;;;;;;;24.52;13.68;;;;;;;;;;5031027;28;20033;-65
2022/08/05 06:47:07;;;;;;;23.70;13.35;;;;;;;;;;5023631;28;20048;-65
2022/08/05 06:49:32;;;;;;;19.83;12.77;;;;;;;;;;5030447;28;20034;-65
2022/08/05 06:51:57;;;;;;;21.83;13.00;;;;;;;;;;5028862;28;20090;-65
2022/08/05 06:54:23;;;;;;;23.17;13.50;;;;;;;;;;5029302;28;20075;-65
2022/08/05 06:56:48;;;;;;;24.08;13.65;;;;;;;;;;5029391;28;20025;-65
2022/08/05 06:59:13;;;;;;;22.48;13.55;;;;;;;;;;5033803;28;20029;-65
2022/08/05 07:01:39;;;;;;;24.60;12.95;;;;;;;;;;5031146;28;20027;-65
2022/08/05 07:04:06;;;;;;;22.20;13.90;;;;;;;;;;5030244;28;20037;-65
2022/08/05 07:06:31;;;;;;;25.60;14.60;;;;;;;;;;5031043;28;20026;-65
2022/08/05 07:08:56;;;;;;;29.75;15.70;;;;;;;;;;5030737;28;20470;-65
2022/08/05 07:11:22;;;;;;;32.13;15.85;;;;;;;;;;5030869;28;20469;-65
2022/08/05 07:16:50;;;;;;;33.75;17.35;;;;;;;;;;5030843;28;20439;-65
2022/08/05 07:19:16;;;;;;;33.97;17.45;;;;;;;;;;5033135;28;20436;-65
2022/08/05 07:21:42;;;;;;;30.45;17.00;;;;;;;;;;5034305;28;20037;-65
2022/08/05 07:24:07;;;;;;;38.92;18.70;;;;;;;;;;5034243;28;20026;-65
2022/08/05 07:26:32;;;;;;;33.67;17.35;;;;;;;;;;5035816;28;20424;-65
2022/08/05 07:28:57;;;;;;;33.28;18.15;;;;;;;;;;5034116;28;20071;-65
2022/08/05 07:31:23;;;;;;;33.92;18.42;;;;;;;;;;5034080;28;20025;-65
2022/08/05 07:33:48;;;;;;;35.83;19.38;;;;;;;;;;5034081;28;20080;-66
2022/08/05 07:36:13;;;;;;;30.63;18.45;;;;;;;;;;5034298;28;20024;-66
2022/08/05 07:38:39;;;;;;;33.92;19.20;;;;;;;;;;5033779;28;20618;-65
2022/08/05 07:41:05;;;;;;;42.67;21.40;;;;;;;;;;5033777;28;20031;-66
2022/08/05 07:43:31;;;;;;;44.13;21.42;;;;;;;;;;5033822;28;20510;-66
2022/08/05 07:45:56;;;;;;;36.95;20.13;;;;;;;;;;5033726;28;20113;-66
2022/08/05 07:48:21;;;;;;;27.90;17.83;;;;;;;;;;5033782;28;20037;-66
2022/08/05 07:50:46;;;;;;;34.75;19.05;;;;;;;;;;5033842;28;20033;-65
2022/08/05 07:53:11;;;;;;;38.10;19.77;;;;;;;;;;5033560;28;20444;-66
2022/08/05 07:55:37;;;;;;;33.45;18.27;;;;;;;;;;5033396;28;20025;-66
2022/08/05 07:58:02;;;;;;;32.95;18.40;;;;;;;;;;5032827;28;20018;-66
2022/08/05 08:00:27;;;;;;;31.80;19.17;;;;;;;;;;5032984;28;20124;-66
2022/08/05 08:02:52;;;;;;;32.85;19.10;;;;;;;;;;5033747;28;20033;-66
2022/08/05 08:05:18;;;;;;;30.48;17.27;;;;;;;;;;5033179;28;20025;-66
2022/08/05 08:07:43;;;;;;;35.28;18.65;;;;;;;;;;5033627;28;20424;-66
2022/08/05 08:10:08;;;;;;;34.45;18.38;;;;;;;;;;5032466;28;20017;-65
2022/08/05 08:12:34;;;;;;;40.33;18.42;;;;;;;;;;5033740;28;20025;-66
2022/08/05 08:14:59;;;;;;;32.15;17.77;;;;;;;;;;5033380;28;20017;-66
2022/08/05 08:17:24;;;;;;;30.65;17.83;;;;;;;;;;5033332;28;20478;-65
2022/08/05 08:19:50;;;;;;;30.10;18.27;;;;;;;;;;5033049;28;20029;-66
2022/08/05 08:22:15;;;;;;;39.72;19.17;;;;;;;;;;5033092;28;20049;-66
2022/08/05 08:24:40;;;;;;;29.67;18.33;;;;;;;;;;5033010;28;20025;-66
2022/08/05 08:27:06;;;;;;;31.33;17.20;;;;;;;;;;5033259;28;20033;-65
2022/08/05 08:29:31;;;;;;;33.50;19.55;;;;;;;;;;5032092;28;20029;-66
2022/08/05 08:31:56;;;;;;;38.35;19.65;;;;;;;;;;5033043;28;20026;-66
2022/08/05 08:34:24;;;;;;;37.35;20.70;;;;;;;;;;5032668;28;20030;-66
2022/08/05 08:36:49;;;;;;;26.17;16.75;;;;;;;;;;5033200;28;20014;-66
2022/08/05 08:39:17;;;;;;;30.42;18.27;;;;;;;;;;5032613;28;20474;-66
2022/08/05 08:41:43;;;;;;;23.75;15.48;;;;;;;;;;5032712;28;20033;-66
2022/08/05 08:44:08;;;;;;;23.08;14.57;;;;;;;;;;5032680;28;20382;-66
2022/08/05 08:46:34;;;;;;;28.38;15.80;;;;;;;;;;5032674;28;20026;-65
2022/08/05 08:49:01;;;;;;;24.67;16.05;;;;;;;;;;5032534;28;20018;-66
2022/08/05 08:51:30;;;;;;;28.08;15.80;;;;;;;;;;5032841;28;20025;-66
2022/08/05 08:53:55;;;;;;;26.95;16.70;;;;;;;;;;5032219;28;20147;-66
2022/08/05 08:56:22;;;;;;;29.88;16.05;;;;;;;;;;5031598;28;20064;-66
2022/08/05 08:58:47;;;;;;;24.40;15.52;;;;;;;;;;5032509;28;20013;-66
2022/08/05 09:01:13;;;;;;;25.33;16.02;;;;;;;;;;5032734;28;20026;-66
2022/08/05 09:03:40;;;;;;;27.63;15.02;;;;;;;;;;5032424;28;20030;-66
2022/08/05 09:06:05;;;;;;;25.17;14.68;;;;;;;;;;5032210;28;20028;-66
2022/08/05 09:08:30;;;;;;;25.08;14.68;;;;;;;;;;5032301;28;20009;-66
2022/08/05 09:10:56;;;;;;;26.88;15.50;;;;;;;;;;5032141;28;20040;-66
2022/08/05 09:13:21;;;;;;;24.40;15.55;;;;;;;;;;5032096;28;20025;-66
2022/08/05 09:15:46;;;;;;;24.48;15.75;;;;;;;;;;5032415;28;20028;-66
2022/08/05 09:18:11;;;;;;;21.15;14.45;;;;;;;;;;5032262;28;20013;-66
2022/08/05 09:20:37;;;;;;;22.33;13.35;;;;;;;;;;5031758;28;20100;-66
2022/08/05 09:23:04;;;;;;;22.02;14.00;;;;;;;;;;5032075;28;20017;-66
2022/08/05 09:25:30;;;;;;;23.08;14.13;;;;;;;;;;5031589;28;20432;-66
2022/08/05 09:27:55;;;;;;;22.30;12.93;;;;;;;;;;5032347;28;20059;-66
2022/08/05 09:30:21;;;;;;;23.48;13.18;;;;;;;;;;5031739;28;20033;-66
2022/08/05 09:32:46;;;;;;;21.30;12.93;;;;;;;;;;5032162;28;20083;-66
2022/08/05 09:35:12;;;;;;;22.77;13.48;;;;;;;;;;5031802;28;20026;-66
2022/08/05 09:37:47;;;;;;;23.00;13.35;;;;;;;;;;5032026;28;20545;-66
2022/08/05 09:40:33;;;;;;;19.33;10.52;;;;;;;;;;5031714;28;20037;-66
2022/08/05 09:43:00;;;;;;;12.60;7.90;;;;;;;;;;5031950;28;20519;-66
2022/08/05 09:45:39;;;;;;;15.60;8.50;;;;;;;;;;5031184;28;20071;-66
2022/08/05 09:48:20;;;;;;;10.00;5.13;;;;;;;;;;5031796;28;20108;-66
2022/08/05 09:50:50;;;;;;;12.93;6.28;;;;;;;;;;5031124;28;20052;-66
2022/08/05 09:53:15;;;;;;;12.75;6.60;;;;;;;;;;5030541;28;20520;-65
2022/08/05 09:55:40;;;;;;;10.32;6.03;;;;;;;;;;5030975;28;20017;-66
2022/08/05 09:58:09;;;;;;;17.08;8.02;;;;;;;;;;5031465;28;20064;-66
2022/08/05 10:00:35;;;;;;;17.00;8.63;;;;;;;;;;5031457;28;20025;-66
2022/08/05 10:03:07;;;;;;;15.80;9.23;;;;;;;;;;5031513;28;20528;-66
2022/08/05 10:05:32;;;;;;;16.75;10.13;;;;;;;;;;5030542;28;20018;-66
2022/08/05 10:07:59;;;;;;;14.63;9.27;;;;;;;;;;5031382;28;20112;-66
2022/08/05 10:10:26;;;;;;;19.10;10.18;;;;;;;;;;5031233;28;20026;-65
2022/08/05 10:12:55;;;;;;;14.85;9.75;;;;;;;;;;5031400;28;20478;-66
2022/08/05 10:15:32;;;;;;;12.75;8.68;;;;;;;;;;5030775;28;20090;-66
2022/08/05 10:18:24;;;;;;;12.38;6.68;;;;;;;;;;5031155;28;20060;-66
2022/08/05 10:20:56;;;;;;;8.57;5.53;;;;;;;;;;5030592;28;20048;-66
2022/08/05 10:23:24;;;;;;;13.23;6.88;;;;;;;;;;5030624;28;20112;-66
2022/08/05 10:25:49;;;;;;;10.52;6.78;;;;;;;;;;5031267;28;20026;-66
2022/08/05 10:28:14;;;;;;;10.57;6.78;;;;;;;;;;5030955;28;20037;-66
2022/08/05 10:30:40;;;;;;;12.35;7.00;;;;;;;;;;5031023;28;20109;-66
2022/08/05 10:33:05;;;;;;;8.57;6.70;;;;;;;;;;5030893;28;20025;-66
2022/08/05 10:35:31;;;;;;;9.82;5.70;;;;;;;;;;5030707;28;20025;-66
2022/08/05 10:37:59;;;;;;;8.55;5.78;;;;;;;;;;5031195;28;20029;-66
2022/08/05 10:40:27;;;;;;;11.48;6.50;;;;;;;;;;5030650;28;20029;-65
2022/08/05 10:42:54;;;;;;;8.32;5.65;;;;;;;;;;5030958;28;20041;-66
2022/08/05 10:45:27;;;;;;;7.32;4.88;;;;;;;;;;5030718;28;20055;-65
2022/08/05 10:47:52;;;;;;;8.85;3.72;;;;;;;;;;5030826;28;20136;-65
2022/08/05 10:50:18;;;;;;;5.90;4.10;;;;;;;;;;5030557;28;20136;-66
2022/08/05 10:52:46;;;;;;;10.45;4.30;;;;;;;;;;5031512;28;20102;-66
2022/08/05 10:55:12;;;;;;;8.13;4.25;;;;;;;;;;5034542;28;20111;-65
2022/08/05 10:57:40;;;;;;;7.55;3.70;;;;;;;;;;5034902;28;20022;-65
2022/08/05 11:00:15;;;;;;;5.10;2.30;;;;;;;;;;5034628;28;20496;-65
2022/08/05 11:02:59;;;;;;;4.75;2.35;;;;;;;;;;5034821;28;20037;-65
2022/08/05 11:05:24;;;;;;;4.30;1.60;;;;;;;;;;5034464;28;20531;-66
2022/08/05 11:07:56;;;;;;;3.70;1.85;;;;;;;;;;5034476;28;20052;-66
2022/08/05 11:10:24;;;;;;;3.65;1.90;;;;;;;;;;5034244;28;20033;-66
2022/08/05 11:12:50;;;;;;;5.10;2.40;;;;;;;;;;5034696;28;20179;-66
2022/08/05 11:15:15;;;;;;;7.32;2.60;;;;;;;;;;5034256;28;20569;-66
2022/08/05 11:17:45;;;;;;;6.05;2.60;;;;;;;;;;5034579;28;20034;-65
2022/08/05 11:20:28;;;;;;;5.70;2.60;;;;;;;;;;5034212;28;20389;-66
2022/08/05 11:22:54;;;;;;;4.60;2.10;;;;;;;;;;5034446;28;20390;-66
2022/08/05 11:25:28;;;;;;;4.07;2.20;;;;;;;;;;5034299;28;20037;-66
2022/08/05 11:27:54;;;;;;;4.03;2.42;;;;;;;;;;5034105;28;20456;-66
2022/08/05 11:30:19;;;;;;;7.97;2.70;;;;;;;;;;5033903;28;20120;-66
2022/08/05 11:32:45;;;;;;;5.05;2.88;;;;;;;;;;5034487;28;20030;-66
2022/08/05 11:35:30;;;;;;;6.70;3.30;;;;;;;;;;5033883;28;20038;-66
2022/08/05 11:37:55;;;;;;;6.35;3.70;;;;;;;;;;5033774;28;20390;-66
2022/08/05 11:40:40;;;;;;;11.55;5.05;;;;;;;;;;5033840;28;20021;-66
2022/08/05 11:43:06;;;;;;;7.82;4.28;;;;;;;;;;5033805;28;20025;-66
2022/08/05 11:45:31;;;;;;;6.22;4.10;;;;;;;;;;5033923;28;20048;-66
2022/08/05 11:47:57;;;;;;;11.57;4.60;;;;;;;;;;5034073;28;20029;-66
2022/08/05 11:50:23;;;;;;;7.70;4.65;;;;;;;;;;5033086;28;20021;-66
2022/08/05 11:52:48;;;;;;;7.28;4.85;;;;;;;;;;5033653;28;20036;-66
2022/08/05 11:55:14;;;;;;;8.25;4.43;;;;;;;;;;5033451;28;20064;-66
2022/08/05 11:57:44;;;;;;;8.35;4.93;;;;;;;;;;5033514;28;20032;-65
2022/08/05 12:00:29;;;;;;;9.30;4.65;;;;;;;;;;5033638;28;20049;-66
2022/08/05 12:02:54;;;;;;;7.57;4.70;;;;;;;;;;5032700;28;20080;-66
2022/08/05 12:05:26;;;;;;;6.45;4.55;;;;;;;;;;5033050;28;20033;-65
2022/08/05 12:07:52;;;;;;;8.50;4.78;;;;;;;;;;5031662;28;20067;-65
2022/08/05 12:10:18;;;;;;;7.95;4.32;;;;;;;;;;5034642;28;20029;-66
2022/08/05 12:12:43;;;;;;;9.55;4.50;;;;;;;;;;5031838;28;20529;-66
2022/08/05 12:15:17;;;;;;;8.63;4.03;;;;;;;;;;5035619;28;20022;-66
2022/08/05 12:17:43;;;;;;;6.63;4.55;;;;;;;;;;5033751;28;20021;-66
2022/08/05 12:20:08;;;;;;;8.50;4.13;;;;;;;;;;5036128;28;20028;-65
2022/08/05 12:22:33;;;;;;;7.65;3.95;;;;;;;;;;5035073;28;20071;-66
2022/08/05 12:24:58;;;;;;;6.60;4.05;;;;;;;;;;5030820;28;20075;-66
2022/08/05 12:27:24;;;;;;;8.80;4.70;;;;;;;;;;5035766;28;20017;-66
2022/08/05 12:30:02;;;;;;;8.40;4.45;;;;;;;;;;5032704;28;20121;-66
2022/08/05 12:32:30;;;;;;;7.05;4.50;;;;;;;;;;5035116;28;20059;-66
2022/08/05 12:34:55;;;;;;;7.38;4.03;;;;;;;;;;5033534;28;20025;-65
2022/08/05 12:37:21;;;;;;;6.78;4.40;;;;;;;;;;5032799;28;20083;-66
2022/08/05 12:39:48;;;;;;;7.20;4.43;;;;;;;;;;5035991;28;20032;-65
2022/08/05 12:42:17;;;;;;;10.38;6.20;;;;;;;;;;5031594;28;20048;-66
2022/08/05 12:44:43;;;;;;;7.70;4.38;;;;;;;;;;5031752;28;20121;-66
2022/08/05 12:47:08;;;;;;;8.02;4.22;;;;;;;;;;5032051;28;20477;-66
2022/08/05 12:49:44;;;;;;;6.93;4.13;;;;;;;;;;5035736;28;20021;-65
2022/08/05 12:52:15;;;;;;;7.75;4.20;;;;;;;;;;5029982;28;20053;-66
2022/08/05 12:54:41;;;;;;;7.03;3.90;;;;;;;;;;5031291;28;20037;-65
2022/08/05 12:57:07;;;;;;;6.35;3.88;;;;;;;;;;5031777;28;20036;-66
2022/08/05 12:59:41;;;;;;;6.18;3.63;;;;;;;;;;5032494;28;20052;-65
2022/08/05 13:02:07;;;;;;;5.88;4.05;;;;;;;;;;5033045;28;20033;-65
2022/08/05 13:04:32;;;;;;;9.77;3.75;;;;;;;;;;5034789;28;20051;-65
2022/08/05 13:06:59;;;;;;;8.25;3.53;;;;;;;;;;5031847;28;20025;-66
2022/08/05 13:09:25;;;;;;;6.35;3.47;;;;;;;;;;5031920;28;20026;-65
2022/08/05 13:11:54;;;;;;;7.00;3.72;;;;;;;;;;5032351;28;20009;-66
2022/08/05 13:14:21;;;;;;;7.22;3.15;;;;;;;;;;5031821;28;20386;-65
2022/08/05 13:16:47;;;;;;;6.75;2.97;;;;;;;;;;5032113;28;20378;-66
2022/08/05 13:19:13;;;;;;;7.15;3.20;;;;;;;;;;5032062;28;20486;-66
2022/08/05 13:21:38;;;;;;;5.30;3.10;;;;;;;;;;5032056;28;20071;-65
2022/08/05 13:24:05;;;;;;;6.30;3.03;;;;;;;;;;5032114;28;20036;-65
2022/08/05 13:26:30;;;;;;;5.97;3.10;;;;;;;;;;5030396;28;20039;-65
2022/08/05 13:28:55;;;;;;;8.00;2.88;;;;;;;;;;5023935;28;20025;-65
2022/08/05 13:31:20;;;;;;;5.30;2.20;;;;;;;;;;5031724;28;20022;-65
2022/08/05 13:33:46;;;;;;;5.07;2.00;;;;;;;;;;5031614;28;20022;-66
2022/08/05 13:36:12;;;;;;;7.05;2.28;;;;;;;;;;5031491;28;20056;-66
2022/08/05 13:38:37;;;;;;;6.47;1.70;;;;;;;;;;5031786;28;20014;-65
2022/08/05 13:41:03;;;;;;;3.58;1.20;;;;;;;;;;5031844;28;20033;-65
2022/08/05 13:43:28;;;;;;;6.47;1.20;;;;;;;;;;5031704;28;20037;-65
2022/08/05 13:45:53;;;;;;;3.67;1.10;;;;;;;;;;5031382;28;20017;-66
2022/08/05 13:48:18;;;;;;;4.78;1.27;;;;;;;;;;5031568;28;20108;-65
2022/08/05 13:50:43;;;;;;;4.22;0.95;;;;;;;;;;5031341;28;20164;-65
2022/08/05 13:53:09;;;;;;;2.63;0.70;;;;;;;;;;5031572;28;20068;-66
2022/08/05 13:55:34;;;;;;;4.95;0.90;;;;;;;;;;5031159;28;20079;-66
2022/08/05 13:57:59;;;;;;;4.85;0.80;;;;;;;;;;5031512;28;20032;-65
2022/08/05 14:00:24;;;;;;;1.80;0.47;;;;;;;;;;5031306;28;20029;-65
2022/08/05 14:02:50;;;;;;;3.65;0.60;;;;;;;;;;5031675;28;20083;-65
2022/08/05 14:05:15;;;;;;;1.95;0.65;;;;;;;;;;5031328;28;20032;-65
2022/08/05 14:07:42;;;;;;;3.72;0.60;;;;;;;;;;5031231;28;20029;-65
2022/08/05 14:10:07;;;;;;;2.95;0.65;;;;;;;;;;5030261;28;20021;-65
2022/08/05 14:12:32;;;;;;;2.75;0.60;;;;;;;;;;5032113;28;20036;-65
2022/08/05 14:14:58;;;;;;;4.50;0.60;;;;;;;;;;5034058;28;20032;-65
2022/08/05 14:17:25;;;;;;;1.92;0.60;;;;;;;;;;5030392;28;20052;-65
2022/08/05 14:19:50;;;;;;;2.83;0.70;;;;;;;;;;5029275;28;20033;-65
2022/08/05 14:22:16;;;;;;;4.20;0.60;;;;;;;;;;5021411;28;20028;-65
2022/08/05 14:24:41;;;;;;;1.65;0.40;;;;;;;;;;5026564;28;20091;-65
2022/08/05 14:27:07;;;;;;;3.33;0.55;;;;;;;;;;5027487;28;20056;-65